Aplicació Alertes

Dades de l'estació automàtica Badalona - Museu

?
?
Resum diari 23:00 TU
Dades diàries de l'estació meteorològica
Temperatura mitjana 12.1 °C
Temperatura màxima 16.9 °C 13:48 TU
Temperatura mínima 7.9 °C 5:57 TU
Humitat relativa mitjana 64%
Precipitació acumulada 0.0 mm
Ratxa màxima del vent (6 m) 35.3 km/h - 293º 2:46 TU
Pressió atmosfèrica mitjana 1021.0 hPa
Irradiació solar global 10.3 MJ/m2

El tram horari està expressat en Temps Universal (TU). Cal sumar una hora en horari d'hivern i dues en horari d'estiu per passar a l'hora oficial.

Badalona - Museu

Metadades estació meteorol´gica
Municipi Badalona
Comarca Barcelonès
Altitud 42 m
Data alta 21.09.2005
Estat actual Operativa
Dades de període
Període
TU
TM
°C
TX
°C
TN
°C
HRM
%
PPT
mm
VVM (6 m)
km/h
DVM (6 m)
graus
VVX (6 m)
km/h
PM
hPa
RS
W/m2
00:00 - 00:30 10.7 10.9 10.2 68 0.0 13.7 296 21.6 1020.6 0
00:30 - 01:00 10.3 10.4 10.2 67 0.0 13.3 296 25.6 1020.4 0
01:00 - 01:30 9.9 10.4 9.6 69 0.0 17.6 292 25.2 1020.2 0
01:30 - 02:00 9.6 9.7 9.4 70 0.0 18.0 291 25.9 1020.3 0
02:00 - 02:30 9.3 9.5 9.2 73 0.0 19.1 293 28.4 1020.3 0
02:30 - 03:00 9.0 9.4 8.4 76 0.0 21.2 288 35.3 1020.2 0
03:00 - 03:30 8.4 8.8 8.3 76 0.0 20.2 286 29.9 1020.0 0
03:30 - 04:00 9.1 9.5 8.8 70 0.0 20.5 287 30.6 1019.9 0
04:00 - 04:30 8.8 9.1 8.6 70 0.0 17.6 286 29.2 1019.9 0
04:30 - 05:00 8.6 9.1 8.1 69 0.0 17.3 292 26.6 1020.1 0
05:00 - 05:30 8.7 9.3 8.0 68 0.0 15.5 286 28.4 1020.3 0
05:30 - 06:00 8.4 9.1 7.9 69 0.0 17.6 291 25.2 1020.3 0
06:00 - 06:30 8.3 8.5 8.0 69 0.0 18.0 295 28.4 1020.4 0
06:30 - 07:00 8.5 8.6 8.4 69 0.0 15.8 293 26.3 1020.7 10
07:00 - 07:30 8.9 9.3 8.4 67 0.0 19.4 290 29.5 1020.8 66
07:30 - 08:00 9.6 9.8 9.3 64 0.0 19.8 292 33.8 1021.1 141
08:00 - 08:30 9.5 9.8 9.4 65 0.0 18.4 287 30.6 1021.3 204
08:30 - 09:00 10.1 10.3 9.9 63 0.0 17.3 286 29.2 1021.5 255
09:00 - 09:30 10.7 11.3 10.3 61 0.0 16.9 288 28.4 1021.6 351
09:30 - 10:00 11.8 12.1 11.3 57 0.0 15.1 288 25.2 1021.7 401
10:00 - 10:30 12.5 13.2 12.0 55 0.0 14.4 286 27.7 1021.8 449
10:30 - 11:00 13.6 14.2 13.2 52 0.0 14.4 286 26.3 1021.6 483
11:00 - 11:30 14.6 15.2 14.0 49 0.0 11.5 291 20.9 1021.4 499
11:30 - 12:00 15.5 15.8 15.1 47 0.0 10.1 289 23.0 1021.1 498
12:00 - 12:30 16.1 16.5 15.6 46 0.0 6.8 276 13.7 1020.8 484
12:30 - 13:00 16.4 16.6 16.2 47 0.0 6.8 174 11.2 1020.5 460
13:00 - 13:30 16.1 16.4 15.9 49 0.0 7.2 127 10.8 1020.3 419
13:30 - 14:00 16.3 16.9 16.0 50 0.0 6.8 119 10.1 1020.2 367
14:00 - 14:30 16.3 16.7 16.1 52 0.0 7.2 113 12.6 1020.1 300
14:30 - 15:00 16.3 16.9 16.1 61 0.0 5.0 91 9.4 1020.2 214
15:00 - 15:30 16.3 16.6 16.1 64 0.0 4.3 103 9.0 1020.3 138
15:30 - 16:00 16.2 16.4 16.0 66 0.0 3.6 98 8.3 1020.4 71
16:00 - 16:30 15.9 16.1 15.8 70 0.0 2.9 106 5.8 1020.5 14
16:30 - 17:00 15.5 15.9 15.0 65 0.0 4.7 268 8.3 1020.6 0
17:00 - 17:30 14.5 15.0 14.2 69 0.0 4.3 306 7.6 1020.9 0
17:30 - 18:00 13.9 14.3 13.7 69 0.0 5.4 307 8.3 1021.2 0
18:00 - 18:30 13.6 13.9 13.4 68 0.0 6.1 302 9.4 1021.4 0
18:30 - 19:00 13.2 13.6 12.8 66 0.0 5.8 313 11.2 1021.6 0
19:00 - 19:30 13.0 13.2 12.8 67 0.0 9.4 303 15.1 1021.7 0
19:30 - 20:00 13.0 13.3 12.7 70 0.0 12.6 295 18.0 1021.9 0
20:00 - 20:30 12.6 12.8 12.2 66 0.0 11.2 297 18.0 1022.2 0
20:30 - 21:00 12.0 12.2 11.7 66 0.0 14.8 294 19.8 1022.3 0
21:00 - 21:30 11.4 11.7 11.3 67 0.0 13.3 298 19.1 1022.4 0
21:30 - 22:00 11.2 11.3 11.1 67 0.0 14.8 296 20.9 1022.5 0
22:00 - 22:30 11.1 11.1 11.0 67 0.0 12.6 300 20.5 1022.6 0
22:30 - 23:00 10.9 11.0 10.8 68 0.0 10.1 303 16.6 1022.6 0
23:00 - 23:30 10.7 10.8 10.4 69 0.0 13.3 297 21.6 1022.7 0

Les dades en taronja només han passat un control de qualitat automàtic. Resta pendent la seva validació definitiva.